createdAt,value
2023-11-07T00:02:16.020Z,99292.14
2023-11-07T00:04:44.167Z,99303.73
2023-11-07T00:12:35.979Z,99305.63
2023-11-07T00:15:38.528Z,99306.61
2023-11-07T00:18:41.934Z,99316.70
2023-11-07T00:21:36.556Z,99317.11
2023-11-07T00:28:48.277Z,99321.47
2023-11-07T00:31:30.533Z,99325.46
2023-11-07T00:34:01.655Z,99326.11
2023-11-07T00:36:55.172Z,99325.56
2023-11-07T00:40:09.457Z,99327.64
2023-11-07T00:42:45.806Z,99330.35
2023-11-07T00:45:24.270Z,99325.88
2023-11-07T00:47:58.888Z,99329.30
2023-11-07T00:50:37.337Z,99326.97
2023-11-07T00:56:37.637Z,99332.16
2023-11-07T00:59:35.384Z,99333.91
2023-11-07T01:02:16.720Z,99339.38
2023-11-07T01:05:25.541Z,99336.70
2023-11-07T01:08:02.774Z,99338.85
2023-11-07T01:10:54.979Z,99338.80
2023-11-07T01:14:04.283Z,99338.81
2023-11-07T01:16:39.828Z,99337.27
2023-11-07T01:19:07.795Z,99335.90
2023-11-07T01:21:35.843Z,99332.40
2023-11-07T01:24:04.659Z,99330.84
2023-11-07T01:26:32.946Z,99325.39
2023-11-07T01:29:01.058Z,99327.58
2023-11-07T01:31:29.470Z,99325.71
2023-11-07T01:33:57.508Z,99333.63
2023-11-07T01:36:25.566Z,99337.20
2023-11-07T01:38:54.736Z,99340.05
2023-11-07T01:41:22.740Z,99340.89
2023-11-07T01:43:50.753Z,99344.02
2023-11-07T01:46:18.971Z,99344.95
2023-11-07T01:48:48.110Z,99341.67
2023-11-07T01:51:17.151Z,99340.80
2023-11-07T01:53:45.906Z,99346.89
2023-11-07T01:56:13.969Z,99341.89
2023-11-07T01:58:42.757Z,99343.13
2023-11-07T02:01:11.386Z,99338.92
2023-11-07T02:03:39.523Z,99341.92
2023-11-07T02:06:08.360Z,99345.08
2023-11-07T02:08:36.669Z,99344.93
2023-11-07T02:11:05.546Z,99345.65
2023-11-07T02:13:33.854Z,99348.66
2023-11-07T02:16:01.804Z,99347.72
2023-11-07T02:18:31.090Z,99347.93
2023-11-07T02:21:03.409Z,99347.58
2023-11-07T02:23:36.191Z,99344.67
2023-11-07T02:26:04.725Z,99344.20
2023-11-07T02:28:33.716Z,99342.81
2023-11-07T02:31:01.907Z,99345.95
2023-11-07T02:33:31.000Z,99349.01
2023-11-07T02:35:59.285Z,99345.02
2023-11-07T02:38:27.467Z,99344.93
2023-11-07T02:40:56.483Z,99344.05
2023-11-07T02:43:24.531Z,99345.09
2023-11-07T02:45:53.889Z,99342.23
2023-11-07T02:48:28.704Z,99345.36
2023-11-07T02:50:56.960Z,99352.35
2023-11-07T02:53:25.079Z,99360.13
2023-11-07T02:55:53.073Z,99359.77
2023-11-07T02:58:21.953Z,99366.46
2023-11-07T03:00:50.504Z,99369.70
2023-11-07T03:03:18.553Z,99372.45
2023-11-07T03:05:46.856Z,99369.51
2023-11-07T03:08:15.032Z,99367.07
2023-11-07T03:10:42.984Z,99367.13
2023-11-07T03:13:10.946Z,99364.52
2023-11-07T03:15:39.093Z,99357.84
2023-11-07T03:18:07.440Z,99366.25
2023-11-07T03:20:37.403Z,99366.31
2023-11-07T03:23:06.175Z,99371.03
2023-11-07T03:25:34.100Z,99368.56
2023-11-07T03:28:02.274Z,99367.73
2023-11-07T03:30:30.448Z,99371.63
2023-11-07T03:32:58.779Z,99371.09
2023-11-07T03:35:28.486Z,99377.28
2023-11-07T03:37:57.681Z,99376.61
2023-11-07T03:40:25.769Z,99372.56
2023-11-07T03:42:54.925Z,99377.31
2023-11-07T03:45:22.917Z,99387.30
2023-11-07T03:47:51.063Z,99384.52
2023-11-07T03:50:19.169Z,99389.20
2023-11-07T03:52:48.197Z,99390.83
2023-11-07T03:55:16.356Z,99391.41
2023-11-07T03:57:50.550Z,99387.20
2023-11-07T04:00:20.837Z,99382.23
2023-11-07T04:02:49.089Z,99382.42
2023-11-07T04:05:17.603Z,99381.50
2023-11-07T04:07:45.503Z,99381.14
2023-11-07T04:10:14.490Z,99387.97
2023-11-07T04:12:42.426Z,99387.66
2023-11-07T04:15:11.183Z,99388.51
2023-11-07T04:17:43.272Z,99384.49
2023-11-07T04:20:12.114Z,99385.48
2023-11-07T04:22:43.284Z,99387.85
2023-11-07T04:25:11.862Z,99395.25
2023-11-07T04:27:40.326Z,99398.79
2023-11-07T04:30:09.426Z,99390.94
2023-11-07T04:32:37.646Z,99398.95
2023-11-07T04:35:07.532Z,99405.59
2023-11-07T04:37:35.700Z,99404.11
2023-11-07T04:40:05.687Z,99400.80
2023-11-07T04:42:33.706Z,99404.81
2023-11-07T04:45:02.952Z,99401.91
2023-11-07T04:47:31.132Z,99407.91
2023-11-07T04:50:00.466Z,99410.62
2023-11-07T04:52:28.904Z,99416.30
2023-11-07T04:54:57.244Z,99417.98
2023-11-07T04:57:25.980Z,99419.02
2023-11-07T04:59:54.539Z,99421.29
2023-11-07T05:02:23.167Z,99420.05
2023-11-07T05:04:54.370Z,99415.20
2023-11-07T05:07:22.942Z,99413.10
2023-11-07T05:09:54.137Z,99412.77
2023-11-07T05:12:22.141Z,99413.17
2023-11-07T05:14:50.750Z,99412.09
2023-11-07T05:17:18.781Z,99416.58
2023-11-07T05:19:46.795Z,99424.30
2023-11-07T05:22:14.876Z,99421.84
2023-11-07T05:24:42.967Z,99424.36
2023-11-07T05:27:11.029Z,99423.13
2023-11-07T05:29:38.976Z,99428.09
2023-11-07T05:32:07.225Z,99420.63
2023-11-07T05:34:41.299Z,99424.19
2023-11-07T05:37:13.510Z,99430.33
2023-11-07T05:39:45.478Z,99432.54
2023-11-07T05:42:13.658Z,99439.17
2023-11-07T05:44:41.671Z,99439.84
2023-11-07T05:47:09.630Z,99444.27
2023-11-07T05:49:37.512Z,99448.78
2023-11-07T05:52:05.935Z,99451.84
2023-11-07T05:54:33.978Z,99456.81
2023-11-07T05:57:10.049Z,99454.36
2023-11-07T05:59:38.305Z,99458.91
2023-11-07T06:02:06.667Z,99464.03
2023-11-07T06:04:35.739Z,99463.39
2023-11-07T06:07:05.844Z,99462.45
2023-11-07T06:09:34.271Z,99463.43
2023-11-07T06:12:02.830Z,99468.51
2023-11-07T06:14:31.618Z,99471.89
2023-11-07T06:17:03.649Z,99474.11
2023-11-07T06:19:31.701Z,99476.10
2023-11-07T06:22:00.629Z,99480.72
2023-11-07T06:24:28.753Z,99482.88
2023-11-07T06:26:56.727Z,99482.73
2023-11-07T06:29:26.309Z,99486.20
2023-11-07T06:31:55.022Z,99491.00
2023-11-07T06:34:24.159Z,99492.30
2023-11-07T06:36:54.211Z,99493.91
2023-11-07T06:39:24.936Z,99496.98
2023-11-07T06:41:54.870Z,99498.58
2023-11-07T06:44:23.149Z,99503.39
2023-11-07T06:46:52.886Z,99505.41
2023-11-07T06:49:21.048Z,99502.71
2023-11-07T06:51:49.169Z,99507.17
2023-11-07T06:54:17.260Z,99503.16
2023-11-07T06:56:46.311Z,99503.10
2023-11-07T06:59:21.214Z,99503.80
2023-11-07T07:01:49.138Z,99504.33
2023-11-07T07:04:17.510Z,99504.36
2023-11-07T07:06:45.765Z,99511.63
2023-11-07T07:09:15.277Z,99512.20
2023-11-07T07:11:43.276Z,99514.00
2023-11-07T07:14:12.071Z,99515.55
2023-11-07T07:16:42.075Z,99517.30
2023-11-07T07:19:10.192Z,99519.70
2023-11-07T07:21:38.192Z,99527.77
2023-11-07T07:24:22.682Z,99530.70
2023-11-07T07:26:52.031Z,99532.61
2023-11-07T07:29:20.089Z,99538.71
2023-11-07T07:31:48.151Z,99537.86
2023-11-07T07:34:16.636Z,99539.73
2023-11-07T07:36:45.557Z,99543.81
2023-11-07T07:39:36.107Z,99546.91
2023-11-07T07:42:12.056Z,99545.61
2023-11-07T07:44:40.189Z,99553.46
2023-11-07T07:47:09.054Z,99554.68
2023-11-07T07:49:42.110Z,99555.88
2023-11-07T07:52:24.254Z,99562.02
2023-11-07T07:55:09.731Z,99565.59
2023-11-07T07:57:44.290Z,99566.31
2023-11-07T08:00:25.733Z,99564.91
2023-11-07T08:02:54.517Z,99567.60
2023-11-07T08:05:23.364Z,99566.20
2023-11-07T08:07:52.266Z,99568.76
2023-11-07T08:10:23.524Z,99569.44
2023-11-07T08:12:53.058Z,99566.30
2023-11-07T08:15:21.079Z,99571.37
2023-11-07T08:17:51.920Z,99578.73
2023-11-07T08:20:24.378Z,99580.13
2023-11-07T08:22:54.680Z,99583.17
2023-11-07T08:25:23.493Z,99583.60
2023-11-07T08:27:52.097Z,99585.84
2023-11-07T08:30:27.881Z,99587.84
2023-11-07T08:32:55.992Z,99591.34
2023-11-07T08:35:24.378Z,99600.86
2023-11-07T08:37:52.747Z,99599.30
2023-11-07T08:40:22.548Z,99602.25
2023-11-07T08:42:52.234Z,99604.30
2023-11-07T08:45:22.241Z,99604.34
2023-11-07T08:47:57.766Z,99609.29
2023-11-07T08:50:27.148Z,99607.80
2023-11-07T08:52:56.225Z,99609.21
2023-11-07T08:55:30.963Z,99611.45
2023-11-07T08:58:07.033Z,99611.58
2023-11-07T09:00:45.855Z,99617.11
2023-11-07T09:03:13.944Z,99615.31
2023-11-07T09:05:42.270Z,99615.60
2023-11-07T09:08:10.734Z,99619.30
2023-11-07T09:10:39.323Z,99623.41
2023-11-07T09:13:09.303Z,99627.79
2023-11-07T09:15:37.434Z,99627.52
2023-11-07T09:18:07.563Z,99621.58
2023-11-07T09:20:35.707Z,99627.10
2023-11-07T09:23:05.619Z,99624.33
2023-11-07T09:25:33.634Z,99624.10
2023-11-07T09:28:03.039Z,99628.89
2023-11-07T09:30:31.033Z,99634.20
2023-11-07T09:32:59.847Z,99632.63
2023-11-07T09:35:28.480Z,99637.84
2023-11-07T09:38:00.336Z,99637.05
2023-11-07T09:40:28.519Z,99641.90
2023-11-07T09:42:56.823Z,99645.60
2023-11-07T09:45:25.659Z,99640.05
2023-11-07T09:47:54.039Z,99642.64
2023-11-07T09:50:25.932Z,99645.23
2023-11-07T09:52:56.406Z,99648.17
2023-11-07T09:55:29.502Z,99646.63
2023-11-07T09:58:12.884Z,99647.40
2023-11-07T10:00:53.977Z,99648.66
2023-11-07T10:03:22.202Z,99646.23
2023-11-07T10:05:52.062Z,99643.30
2023-11-07T10:08:31.361Z,99639.03
2023-11-07T10:11:10.360Z,99638.55
2023-11-07T10:13:39.797Z,99639.02
2023-11-07T10:18:47.975Z,99636.40
2023-11-07T10:21:17.696Z,99636.52
2023-11-07T10:23:45.792Z,99634.77
2023-11-07T10:26:14.722Z,99636.39
2023-11-07T10:28:42.958Z,99632.88
2023-11-07T10:31:21.850Z,99636.61
2023-11-07T10:33:49.957Z,99634.30
2023-11-07T10:36:19.209Z,99631.75
2023-11-07T10:38:48.109Z,99632.17
2023-11-07T10:41:27.556Z,99632.89
2023-11-07T10:43:55.451Z,99626.88
2023-11-07T10:46:24.858Z,99627.95
2023-11-07T10:48:54.700Z,99630.91
2023-11-07T10:51:25.288Z,99625.90
2023-11-07T10:53:53.359Z,99631.57
2023-11-07T10:56:22.606Z,99627.20
2023-11-07T10:59:00.686Z,99629.38
2023-11-07T11:01:39.559Z,99630.48
2023-11-07T11:04:10.307Z,99632.63
2023-11-07T11:06:40.822Z,99633.14
2023-11-07T11:09:12.693Z,99637.61
2023-11-07T11:11:43.267Z,99635.73
2023-11-07T11:14:11.249Z,99633.16
2023-11-07T11:16:41.639Z,99633.61
2023-11-07T11:19:36.302Z,99633.17
2023-11-07T11:22:21.283Z,99632.13
2023-11-07T11:24:57.882Z,99632.00
2023-11-07T11:27:37.627Z,99632.27
2023-11-07T11:30:07.234Z,99634.08
2023-11-07T11:32:35.572Z,99633.66
2023-11-07T11:35:13.000Z,99632.20
2023-11-07T11:38:12.131Z,99633.11
2023-11-07T11:40:55.489Z,99633.47
2023-11-07T11:43:28.327Z,99635.13
2023-11-07T11:46:01.006Z,99635.19
2023-11-07T11:48:52.052Z,99630.23
2023-11-07T11:51:40.719Z,99632.90
2023-11-07T11:54:10.144Z,99637.13
2023-11-07T11:56:50.602Z,99634.33
2023-11-07T11:59:33.556Z,99639.43
2023-11-07T12:02:06.678Z,99637.42
2023-11-07T12:04:49.822Z,99638.96
2023-11-07T12:07:22.682Z,99638.08
2023-11-07T12:09:57.548Z,99638.59
2023-11-07T12:12:26.629Z,99639.54
2023-11-07T12:14:56.008Z,99639.94
2023-11-07T12:17:27.377Z,99631.98
2023-11-07T12:20:09.971Z,99630.36
2023-11-07T12:22:42.408Z,99634.77
2023-11-07T12:25:22.581Z,99633.77
2023-11-07T12:28:05.642Z,99631.81
2023-11-07T12:30:41.400Z,99632.05
2023-11-07T12:33:11.247Z,99627.13
2023-11-07T12:35:40.513Z,99626.66
2023-11-07T12:38:11.424Z,99628.38
2023-11-07T12:40:41.655Z,99630.02
2023-11-07T12:43:10.508Z,99624.85
2023-11-07T12:45:40.112Z,99624.95
2023-11-07T12:48:15.138Z,99624.79
2023-11-07T12:50:44.924Z,99624.38
2023-11-07T12:53:16.197Z,99627.90
2023-11-07T12:55:52.012Z,99629.65
2023-11-07T12:58:31.516Z,99623.98
2023-11-07T13:01:05.912Z,99626.73
2023-11-07T13:03:35.639Z,99623.16
2023-11-07T13:06:06.528Z,99630.58
2023-11-07T13:08:37.434Z,99625.85
2023-11-07T13:11:11.240Z,99624.02
2023-11-07T13:13:40.560Z,99629.21
2023-11-07T13:16:08.960Z,99623.88
2023-11-07T13:18:40.914Z,99630.01
2023-11-07T13:21:09.864Z,99629.43
2023-11-07T13:23:39.391Z,99631.21
2023-11-07T13:26:09.039Z,99632.20
2023-11-07T13:28:38.352Z,99633.73
2023-11-07T13:31:07.125Z,99632.55
2023-11-07T13:33:47.739Z,99632.67
2023-11-07T13:36:16.699Z,99633.92
2023-11-07T13:38:48.668Z,99635.00
2023-11-07T13:41:17.850Z,99634.95
2023-11-07T13:43:46.303Z,99639.29
2023-11-07T13:46:19.155Z,99636.34
2023-11-07T13:48:51.967Z,99642.50
2023-11-07T13:51:23.802Z,99642.61
2023-11-07T13:53:52.753Z,99639.16
2023-11-07T13:56:22.427Z,99636.73
2023-11-07T13:58:50.513Z,99639.40
2023-11-07T14:01:18.367Z,99640.08
2023-11-07T14:03:46.812Z,99644.11
2023-11-07T14:06:17.750Z,99641.14
2023-11-07T14:08:47.224Z,99648.10
2023-11-07T14:11:22.851Z,99646.13
2023-11-07T14:13:53.021Z,99648.38
2023-11-07T14:16:21.041Z,99648.98
2023-11-07T14:18:50.750Z,99655.09
2023-11-07T14:21:19.605Z,99657.04
2023-11-07T14:23:48.250Z,99659.48
2023-11-07T14:26:17.553Z,99658.36
2023-11-07T14:28:55.149Z,99659.74
2023-11-07T14:31:30.739Z,99663.19
2023-11-07T14:34:00.274Z,99667.05
2023-11-07T14:36:29.069Z,99665.11
2023-11-07T14:38:57.298Z,99668.85
2023-11-07T14:41:26.246Z,99670.27
2023-11-07T14:44:01.058Z,99672.58
2023-11-07T14:46:29.748Z,99677.23
2023-11-07T14:48:58.330Z,99679.37
2023-11-07T14:51:26.549Z,99676.42
2023-11-07T14:53:54.879Z,99675.69
2023-11-07T14:56:24.455Z,99676.30
2023-11-07T14:58:52.395Z,99675.73
2023-11-07T15:01:20.430Z,99676.01
2023-11-07T15:03:48.708Z,99677.90
2023-11-07T15:06:17.362Z,99676.86
2023-11-07T15:08:45.472Z,99678.52
2023-11-07T15:11:13.905Z,99680.04
2023-11-07T15:13:43.160Z,99678.29
2023-11-07T15:16:31.039Z,99681.09
2023-11-07T15:19:04.341Z,99681.89
2023-11-07T15:21:32.461Z,99675.49
2023-11-07T15:24:00.425Z,99682.96
2023-11-07T15:26:28.541Z,99681.59
2023-11-07T15:28:56.695Z,99683.83
2023-11-07T15:31:28.001Z,99683.23
2023-11-07T15:33:56.270Z,99684.77
2023-11-07T15:36:24.895Z,99681.70
2023-11-07T15:38:54.251Z,99684.35
2023-11-07T15:41:22.515Z,99685.39
2023-11-07T15:43:52.961Z,99686.66
2023-11-07T15:46:23.171Z,99683.77
2023-11-07T15:48:51.542Z,99685.56
2023-11-07T15:51:19.702Z,99684.80
2023-11-07T15:53:47.930Z,99686.09
2023-11-07T15:56:16.072Z,99684.61
2023-11-07T15:58:44.391Z,99690.17
2023-11-07T16:01:12.590Z,99689.61
2023-11-07T16:03:40.813Z,99694.69
2023-11-07T16:06:17.989Z,99693.66
2023-11-07T16:08:47.062Z,99690.71
2023-11-07T16:11:18.228Z,99692.21
2023-11-07T16:13:49.340Z,99688.40
2023-11-07T16:16:18.027Z,99684.39
2023-11-07T16:18:51.721Z,99687.80
2023-11-07T16:21:24.493Z,99690.09
2023-11-07T16:23:52.642Z,99687.19
2023-11-07T16:26:20.615Z,99684.02
2023-11-07T16:28:48.588Z,99688.69
2023-11-07T16:31:16.556Z,99691.41
2023-11-07T16:33:44.618Z,99688.61
2023-11-07T16:36:13.086Z,99692.01
2023-11-07T16:38:41.295Z,99694.76
2023-11-07T16:41:09.313Z,99695.05
2023-11-07T16:43:37.469Z,99694.20
2023-11-07T16:46:05.667Z,99690.16
2023-11-07T16:48:33.820Z,99691.23
2023-11-07T16:51:02.154Z,99690.56
2023-11-07T16:53:30.470Z,99690.40
2023-11-07T16:55:59.470Z,99687.95
2023-11-07T16:58:27.657Z,99692.30
2023-11-07T17:00:59.802Z,99692.45
2023-11-07T17:03:28.616Z,99692.17
2023-11-07T17:05:57.113Z,99689.39
2023-11-07T17:08:26.112Z,99692.27
2023-11-07T17:10:54.696Z,99696.35
2023-11-07T17:13:22.791Z,99695.48
2023-11-07T17:15:54.979Z,99696.63
2023-11-07T17:18:23.053Z,99693.36
2023-11-07T17:20:51.864Z,99693.49
2023-11-07T17:23:22.549Z,99691.92
2023-11-07T17:25:50.448Z,99691.77
2023-11-07T17:28:21.315Z,99691.43
2023-11-07T17:30:51.933Z,99692.06
2023-11-07T17:33:20.230Z,99693.69
2023-11-07T17:35:48.476Z,99695.09
2023-11-07T17:38:22.839Z,99691.89
2023-11-07T17:40:53.838Z,99692.33
2023-11-07T17:43:22.430Z,99691.67
2023-11-07T17:45:50.799Z,99692.14
2023-11-07T17:48:19.488Z,99693.17
2023-11-07T17:50:48.865Z,99689.34
2023-11-07T17:53:17.356Z,99686.08
2023-11-07T17:55:45.493Z,99686.70
2023-11-07T17:58:13.650Z,99686.84
2023-11-07T18:00:42.611Z,99690.66
2023-11-07T18:03:10.862Z,99689.89
2023-11-07T18:05:43.198Z,99692.33
2023-11-07T18:08:11.873Z,99690.79
2023-11-07T18:10:41.011Z,99691.75
2023-11-07T18:13:13.441Z,99686.63
2023-11-07T18:15:46.212Z,99687.58
2023-11-07T18:18:14.458Z,99686.62
2023-11-07T18:20:43.860Z,99688.92
2023-11-07T18:23:14.098Z,99688.17
2023-11-07T18:25:42.335Z,99692.49
2023-11-07T18:28:12.112Z,99694.31
2023-11-07T18:30:40.479Z,99694.64
2023-11-07T18:33:09.129Z,99695.98
2023-11-07T18:35:43.275Z,99690.88
2023-11-07T18:38:38.321Z,99690.48
2023-11-07T18:41:13.339Z,99682.10
2023-11-07T18:43:45.375Z,99685.38
2023-11-07T18:46:14.457Z,99683.34
2023-11-07T18:48:44.798Z,99685.80
2023-11-07T18:51:16.572Z,99683.61
2023-11-07T18:53:46.228Z,99681.55
2023-11-07T18:56:20.155Z,99679.87
2023-11-07T18:58:55.386Z,99676.80
2023-11-07T19:01:47.728Z,99677.73
2023-11-07T19:04:16.155Z,99675.63
2023-11-07T19:06:44.493Z,99675.36
2023-11-07T19:09:18.920Z,99674.54
2023-11-07T19:11:55.127Z,99673.43
2023-11-07T19:14:23.632Z,99673.20
2023-11-07T19:16:54.988Z,99676.10
2023-11-07T19:19:43.489Z,99674.13
2023-11-07T19:22:11.729Z,99671.73
2023-11-07T19:24:39.814Z,99672.17
2023-11-07T19:27:10.213Z,99674.98
2023-11-07T19:29:41.507Z,99674.02
2023-11-07T19:32:23.923Z,99673.65
2023-11-07T19:34:52.497Z,99676.30
2023-11-07T19:37:20.593Z,99674.25
2023-11-07T19:39:54.706Z,99669.81
2023-11-07T19:42:30.380Z,99671.73
2023-11-07T19:45:07.653Z,99671.25
2023-11-07T19:47:39.832Z,99667.55
2023-11-07T19:50:08.890Z,99666.27
2023-11-07T19:52:37.470Z,99664.91
2023-11-07T19:55:06.538Z,99666.95
2023-11-07T19:57:34.848Z,99669.08
2023-11-07T20:00:03.462Z,99669.05
2023-11-07T20:02:32.672Z,99666.79
2023-11-07T20:05:01.381Z,99670.59
2023-11-07T20:07:30.206Z,99669.85
2023-11-07T20:09:59.656Z,99669.10
2023-11-07T20:12:28.141Z,99668.38
2023-11-07T20:14:56.375Z,99664.34
2023-11-07T20:17:33.296Z,99662.40
2023-11-07T20:20:09.803Z,99661.58
2023-11-07T20:22:38.464Z,99665.09
2023-11-07T20:25:10.024Z,99666.77
2023-11-07T20:27:40.313Z,99666.60
2023-11-07T20:30:12.202Z,99666.43
2023-11-07T20:32:40.538Z,99670.77
2023-11-07T20:35:11.175Z,99669.91
2023-11-07T20:37:39.394Z,99666.02
2023-11-07T20:40:11.269Z,99669.92
2023-11-07T20:42:39.643Z,99671.76
2023-11-07T20:45:13.376Z,99672.79
2023-11-07T20:47:42.073Z,99673.73
2023-11-07T20:50:10.415Z,99674.95
2023-11-07T20:52:39.180Z,99675.10
2023-11-07T20:55:07.858Z,99672.13
2023-11-07T20:57:35.888Z,99673.01
2023-11-07T21:00:04.685Z,99669.27
2023-11-07T21:02:32.785Z,99669.27
2023-11-07T21:05:00.902Z,99667.88
2023-11-07T21:07:41.229Z,99664.81
2023-11-07T21:10:12.255Z,99659.05
2023-11-07T21:12:40.933Z,99660.42
2023-11-07T21:15:11.426Z,99657.69
2023-11-07T21:17:42.381Z,99656.90
2023-11-07T21:20:19.781Z,99655.56
2023-11-07T21:22:48.046Z,99657.60
2023-11-07T21:25:16.666Z,99655.08
2023-11-07T21:27:44.853Z,99654.24
2023-11-07T21:30:16.282Z,99658.42
2023-11-07T21:32:44.954Z,99657.60
2023-11-07T21:35:19.497Z,99654.48
2023-11-07T21:37:49.437Z,99651.69
2023-11-07T21:40:18.631Z,99649.69
2023-11-07T21:42:46.821Z,99651.66
2023-11-07T21:45:16.031Z,99652.44
2023-11-07T21:47:44.125Z,99652.73
2023-11-07T21:50:12.737Z,99654.03
2023-11-07T21:52:41.186Z,99653.46
2023-11-07T21:55:09.908Z,99652.80
2023-11-07T21:57:38.714Z,99653.78
2023-11-07T22:00:09.381Z,99653.22
2023-11-07T22:02:44.888Z,99652.16
2023-11-07T22:05:17.532Z,99654.52
2023-11-07T22:07:45.932Z,99658.72
2023-11-07T22:10:17.454Z,99663.47
2023-11-07T22:12:47.271Z,99662.56
2023-11-07T22:15:15.357Z,99667.25
2023-11-07T22:17:44.456Z,99662.38
2023-11-07T22:20:20.482Z,99659.54
2023-11-07T22:22:48.993Z,99663.05
2023-11-07T22:25:17.171Z,99660.79
2023-11-07T22:27:45.300Z,99659.89
2023-11-07T22:30:14.036Z,99661.89
2023-11-07T22:32:42.945Z,99658.08
2023-11-07T22:35:11.538Z,99652.76
2023-11-07T22:37:40.555Z,99652.92
2023-11-07T22:40:11.124Z,99654.59
2023-11-07T22:42:41.587Z,99654.45
2023-11-07T22:45:11.703Z,99653.02
2023-11-07T22:47:40.254Z,99650.04
2023-11-07T22:50:08.934Z,99649.15
2023-11-07T22:52:43.624Z,99646.04
2023-11-07T22:55:12.836Z,99643.16
2023-11-07T22:57:41.978Z,99645.36
2023-11-07T23:00:12.044Z,99641.54
2023-11-07T23:02:43.120Z,99638.41
2023-11-07T23:05:11.937Z,99634.83
2023-11-07T23:07:40.142Z,99636.98
2023-11-07T23:10:16.520Z,99633.63
2023-11-07T23:12:45.455Z,99637.56
2023-11-07T23:15:13.549Z,99638.35
2023-11-07T23:17:41.845Z,99633.89
2023-11-07T23:20:10.452Z,99631.92
2023-11-07T23:22:38.725Z,99626.73
2023-11-07T23:25:07.231Z,99624.38
2023-11-07T23:27:35.644Z,99624.27
2023-11-07T23:30:11.211Z,99625.52
2023-11-07T23:32:40.737Z,99623.29
2023-11-07T23:35:10.909Z,99626.89
2023-11-07T23:37:39.639Z,99621.70
2023-11-07T23:40:12.124Z,99621.80
2023-11-07T23:42:44.554Z,99622.52
2023-11-07T23:45:12.809Z,99622.80
2023-11-07T23:47:41.497Z,99623.98
2023-11-07T23:50:11.626Z,99620.85
2023-11-07T23:52:40.781Z,99615.65
2023-11-07T23:55:15.520Z,99609.80
2023-11-07T23:57:44.269Z,99608.70
